createdAt,value
2018-11-21T00:00:00.838Z,1013.76
2018-11-21T00:00:41.390Z,1013.72
2018-11-21T00:01:21.944Z,1013.7
2018-11-21T00:02:02.492Z,1013.7
2018-11-21T00:02:43.048Z,1013.67
2018-11-21T00:03:23.591Z,1013.7
2018-11-21T00:04:04.139Z,1013.69
2018-11-21T00:04:44.734Z,1013.69
2018-11-21T00:05:25.306Z,1013.65
2018-11-21T00:06:05.863Z,1013.65
2018-11-21T00:06:46.486Z,1013.62
2018-11-21T00:07:27.118Z,1013.65
2018-11-21T00:08:07.689Z,1013.67
2018-11-21T00:08:48.292Z,1013.61
2018-11-21T00:09:28.841Z,1013.62
2018-11-21T00:10:09.410Z,1013.66
2018-11-21T00:10:50.063Z,1013.68
2018-11-21T00:11:30.663Z,1013.68
2018-11-21T00:12:11.192Z,1013.71
2018-11-21T00:12:51.749Z,1013.64
2018-11-21T00:13:32.362Z,1013.71
2018-11-21T00:14:12.917Z,1013.71
2018-11-21T00:14:53.471Z,1013.69
2018-11-21T00:15:34.056Z,1013.7
2018-11-21T00:16:14.610Z,1013.7
2018-11-21T00:16:55.168Z,1013.73
2018-11-21T00:17:35.720Z,1013.75
2018-11-21T00:18:16.276Z,1013.73
2018-11-21T00:19:00.631Z,1013.72
2018-11-21T00:19:37.434Z,1013.72
2018-11-21T00:20:17.978Z,1013.72
2018-11-21T00:20:58.595Z,1013.7
2018-11-21T00:21:39.142Z,1013.72
2018-11-21T00:22:19.697Z,1013.67
2018-11-21T00:23:00.246Z,1013.71
2018-11-21T00:23:40.799Z,1013.69
2018-11-21T00:24:21.377Z,1013.7
2018-11-21T00:25:01.931Z,1013.69
2018-11-21T00:25:42.494Z,1013.72
2018-11-21T00:26:23.066Z,1013.71
2018-11-21T00:27:03.727Z,1013.76
2018-11-21T00:27:44.277Z,1013.73
2018-11-21T00:28:24.868Z,1013.65
2018-11-21T00:29:05.543Z,1013.71
2018-11-21T00:29:46.085Z,1013.72
2018-11-21T00:30:26.658Z,1013.71
2018-11-21T00:31:07.270Z,1013.73
2018-11-21T00:31:47.817Z,1013.72
2018-11-21T00:32:28.410Z,1013.71
2018-11-21T00:33:08.946Z,1013.68
2018-11-21T00:33:49.514Z,1013.72
2018-11-21T00:34:30.071Z,1013.82
2018-11-21T00:35:10.648Z,1013.7
2018-11-21T00:35:51.205Z,1013.75
2018-11-21T00:36:31.839Z,1013.74
2018-11-21T00:37:12.413Z,1013.77
2018-11-21T00:37:53.014Z,1013.76
2018-11-21T00:38:33.558Z,1013.75
2018-11-21T00:39:14.110Z,1013.76
2018-11-21T00:39:54.727Z,1013.75
2018-11-21T00:40:35.287Z,1013.76
2018-11-21T00:41:15.842Z,1013.82
2018-11-21T00:41:56.422Z,1013.76
2018-11-21T00:42:38.014Z,1013.77
2018-11-21T00:43:17.569Z,1013.76
2018-11-21T00:43:58.149Z,1013.77
2018-11-21T00:44:38.687Z,1013.79
2018-11-21T00:45:19.276Z,1013.84
2018-11-21T00:45:59.834Z,1013.72
2018-11-21T00:46:40.418Z,1013.78
2018-11-21T00:47:20.981Z,1013.78
2018-11-21T00:48:01.554Z,1013.81
2018-11-21T00:48:42.122Z,1013.77
2018-11-21T00:49:22.686Z,1013.78
2018-11-21T00:50:03.243Z,1013.77
2018-11-21T00:50:44.193Z,1013.76
2018-11-21T00:51:24.836Z,1013.81
2018-11-21T00:52:05.368Z,1013.78
2018-11-21T00:52:45.966Z,1013.8
2018-11-21T00:53:26.525Z,1013.81
2018-11-21T00:54:07.113Z,1013.76
2018-11-21T00:54:47.675Z,1013.85
2018-11-21T00:55:28.428Z,1013.77
2018-11-21T00:56:08.978Z,1013.8
2018-11-21T00:56:50.558Z,1013.78
2018-11-21T00:57:31.139Z,1013.83
2018-11-21T00:58:11.683Z,1013.75
2018-11-21T00:58:52.238Z,1013.76
2018-11-21T00:59:32.796Z,1013.76
2018-11-21T01:00:13.341Z,1013.74
2018-11-21T01:00:53.894Z,1013.78
2018-11-21T01:01:34.455Z,1013.75
2018-11-21T01:02:15.015Z,1013.79
2018-11-21T01:02:55.587Z,1013.82
2018-11-21T01:03:36.155Z,1013.85
2018-11-21T01:04:16.722Z,1013.79
2018-11-21T01:04:57.286Z,1013.82
2018-11-21T01:05:37.850Z,1013.82
2018-11-21T01:06:18.412Z,1013.85
2018-11-21T01:06:58.984Z,1013.82
2018-11-21T01:07:39.538Z,1013.81
2018-11-21T01:08:20.099Z,1013.79
2018-11-21T01:09:00.679Z,1013.76
2018-11-21T01:09:41.217Z,1013.75
2018-11-21T01:10:21.846Z,1013.69
2018-11-21T01:11:02.417Z,1013.72
2018-11-21T01:11:42.986Z,1013.7
2018-11-21T01:12:24.542Z,1013.75
2018-11-21T01:13:05.094Z,1013.71
2018-11-21T01:13:45.642Z,1013.82
2018-11-21T01:14:26.233Z,1013.82
2018-11-21T01:15:06.806Z,1013.77
2018-11-21T01:15:47.357Z,1013.75
2018-11-21T01:16:27.911Z,1013.79
2018-11-21T01:17:08.465Z,1013.77
2018-11-21T01:17:49.033Z,1013.71
2018-11-21T01:18:29.604Z,1013.77
2018-11-21T01:19:10.165Z,1013.79
2018-11-21T01:19:50.737Z,1013.81
2018-11-21T01:20:31.316Z,1013.76
2018-11-21T01:21:11.865Z,1013.76
2018-11-21T01:21:52.470Z,1013.8
2018-11-21T01:22:33.021Z,1013.74
2018-11-21T01:23:13.568Z,1013.73
2018-11-21T01:23:54.144Z,1013.72
2018-11-21T01:24:34.722Z,1013.76
2018-11-21T01:25:15.280Z,1013.76
2018-11-21T01:25:55.841Z,1013.74
2018-11-21T01:26:36.400Z,1013.75
2018-11-21T01:27:16.945Z,1013.75
2018-11-21T01:27:57.492Z,1013.74
2018-11-21T01:28:38.098Z,1013.72
2018-11-21T01:29:18.685Z,1013.74
2018-11-21T01:29:59.255Z,1013.75
2018-11-21T01:30:39.794Z,1013.75
2018-11-21T01:31:20.365Z,1013.71
2018-11-21T01:32:00.923Z,1013.7
2018-11-21T01:32:41.475Z,1013.71
2018-11-21T01:33:22.135Z,1013.7
2018-11-21T01:34:02.711Z,1013.78
2018-11-21T01:34:43.306Z,1013.72
2018-11-21T01:35:23.863Z,1013.71
2018-11-21T01:36:04.439Z,1013.74
2018-11-21T01:36:45.006Z,1013.72
2018-11-21T01:37:25.594Z,1013.76
2018-11-21T01:38:06.153Z,1013.75
2018-11-21T01:38:46.859Z,1013.68
2018-11-21T01:39:27.420Z,1013.75
2018-11-21T01:40:08.000Z,1013.78
2018-11-21T01:40:48.559Z,1013.84
2018-11-21T01:41:29.149Z,1013.77
2018-11-21T01:42:09.713Z,1013.77
2018-11-21T01:42:50.262Z,1013.78
2018-11-21T01:43:30.831Z,1013.78
2018-11-21T01:44:11.391Z,1013.82
2018-11-21T01:44:52.049Z,1013.82
2018-11-21T01:45:32.616Z,1013.82
2018-11-21T01:46:13.172Z,1013.81
2018-11-21T01:46:53.769Z,1013.7
2018-11-21T01:47:34.355Z,1013.79
2018-11-21T01:48:14.928Z,1013.82
2018-11-21T01:48:55.471Z,1013.82
2018-11-21T01:49:36.039Z,1013.88
2018-11-21T01:50:16.592Z,1013.84
2018-11-21T01:50:57.195Z,1013.81
2018-11-21T01:51:37.700Z,1013.83
2018-11-21T01:52:18.252Z,1013.9
2018-11-21T01:52:58.824Z,1013.88
2018-11-21T01:53:39.379Z,1013.86
2018-11-21T01:54:19.987Z,1013.92
2018-11-21T01:55:00.539Z,1013.86
2018-11-21T01:55:41.090Z,1013.88
2018-11-21T01:56:21.656Z,1013.9
2018-11-21T01:57:02.258Z,1013.9
2018-11-21T01:57:42.768Z,1013.88
2018-11-21T01:58:23.319Z,1013.79
2018-11-21T01:59:03.879Z,1013.85
2018-11-21T01:59:44.423Z,1013.83
2018-11-21T02:00:25.001Z,1013.81
2018-11-21T02:01:05.556Z,1013.87
2018-11-21T02:01:46.186Z,1013.85
2018-11-21T02:02:26.750Z,1013.86
2018-11-21T02:03:07.303Z,1013.9
2018-11-21T02:03:47.847Z,1013.83
2018-11-21T02:04:28.419Z,1013.9
2018-11-21T02:05:08.985Z,1013.91
2018-11-21T02:05:49.585Z,1013.81
2018-11-21T02:06:30.142Z,1013.88
2018-11-21T02:07:10.699Z,1013.83
2018-11-21T02:07:51.261Z,1013.86
2018-11-21T02:08:31.805Z,1013.85
2018-11-21T02:09:12.398Z,1013.83
2018-11-21T02:09:52.961Z,1013.85
2018-11-21T02:10:33.521Z,1013.89
2018-11-21T02:11:14.072Z,1013.85
2018-11-21T02:11:54.658Z,1013.88
2018-11-21T02:12:35.195Z,1013.89
2018-11-21T02:13:15.765Z,1013.89
2018-11-21T02:13:56.323Z,1013.79
2018-11-21T02:14:36.866Z,1013.78
2018-11-21T02:15:17.440Z,1013.79
2018-11-21T02:15:58.070Z,1013.77
2018-11-21T02:16:38.623Z,1013.77
2018-11-21T02:17:19.180Z,1013.8
2018-11-21T02:17:59.730Z,1013.78
2018-11-21T02:18:40.312Z,1013.81
2018-11-21T02:19:20.863Z,1013.77
2018-11-21T02:20:01.460Z,1013.79
2018-11-21T02:20:42.057Z,1013.8
2018-11-21T02:21:22.608Z,1013.77
2018-11-21T02:22:03.191Z,1013.82
2018-11-21T02:22:43.767Z,1013.85
2018-11-21T02:23:24.357Z,1013.82
2018-11-21T02:24:04.916Z,1013.87
2018-11-21T02:24:45.503Z,1013.84
2018-11-21T02:25:26.064Z,1013.84
2018-11-21T02:26:06.633Z,1013.83
2018-11-21T02:26:47.224Z,1013.81
2018-11-21T02:27:27.790Z,1013.8
2018-11-21T02:28:08.331Z,1013.83
2018-11-21T02:28:48.968Z,1013.78
2018-11-21T02:29:29.555Z,1013.81
2018-11-21T02:30:10.118Z,1013.81
2018-11-21T02:30:50.672Z,1013.83
2018-11-21T02:31:31.222Z,1013.85
2018-11-21T02:32:11.797Z,1013.9
2018-11-21T02:32:52.337Z,1013.83
2018-11-21T02:33:32.901Z,1013.87
2018-11-21T02:34:13.457Z,1013.89
2018-11-21T02:34:54.042Z,1013.89
2018-11-21T02:35:34.651Z,1013.9
2018-11-21T02:36:15.184Z,1013.91
2018-11-21T02:36:55.758Z,1013.94
2018-11-21T02:37:36.304Z,1013.98
2018-11-21T02:38:16.873Z,1014.01
2018-11-21T02:38:57.458Z,1013.91
2018-11-21T02:39:38.055Z,1013.88
2018-11-21T02:40:18.608Z,1013.91
2018-11-21T02:40:59.146Z,1013.88
2018-11-21T02:41:39.695Z,1013.91
2018-11-21T02:42:20.276Z,1013.87
2018-11-21T02:43:00.820Z,1013.86
2018-11-21T02:43:41.404Z,1013.88
2018-11-21T02:44:21.983Z,1013.85
2018-11-21T02:45:02.574Z,1013.88
2018-11-21T02:45:43.141Z,1013.91
2018-11-21T02:46:23.716Z,1013.88
2018-11-21T02:47:04.315Z,1013.91
2018-11-21T02:47:44.882Z,1013.9
2018-11-21T02:48:25.399Z,1013.92
2018-11-21T02:49:05.943Z,1013.92
2018-11-21T02:49:46.523Z,1013.95
2018-11-21T02:50:27.108Z,1013.93
2018-11-21T02:51:07.672Z,1013.97
2018-11-21T02:51:48.228Z,1013.89
2018-11-21T02:52:28.820Z,1013.89
2018-11-21T02:53:09.423Z,1013.88
2018-11-21T02:53:49.973Z,1013.92
2018-11-21T02:54:30.555Z,1013.92
2018-11-21T02:55:11.092Z,1013.93
2018-11-21T02:55:51.641Z,1013.91
2018-11-21T02:56:32.199Z,1013.93
2018-11-21T02:57:12.740Z,1013.9
2018-11-21T02:57:53.313Z,1013.83
2018-11-21T02:58:33.869Z,1013.88
2018-11-21T02:59:14.426Z,1013.9
2018-11-21T02:59:55.009Z,1013.96
2018-11-21T03:00:35.597Z,1013.95
2018-11-21T03:01:16.168Z,1013.94
2018-11-21T03:01:56.736Z,1013.92
2018-11-21T03:02:37.317Z,1014.02
2018-11-21T03:03:17.899Z,1014.05
2018-11-21T03:03:58.474Z,1014.03
2018-11-21T03:04:39.029Z,1013.99
2018-11-21T03:05:19.574Z,1014.04
2018-11-21T03:06:00.143Z,1014.05
2018-11-21T03:06:40.684Z,1014.03
2018-11-21T03:07:21.233Z,1014.04
2018-11-21T03:08:01.779Z,1014.05
2018-11-21T03:08:42.364Z,1014.09
2018-11-21T03:09:22.958Z,1014.03
2018-11-21T03:10:03.516Z,1014.06
2018-11-21T03:10:44.066Z,1014.06
2018-11-21T03:11:24.614Z,1014.11
2018-11-21T03:12:05.163Z,1014.12
2018-11-21T03:12:45.735Z,1014.12
2018-11-21T03:13:28.210Z,1014.15
2018-11-21T03:14:06.872Z,1014.06
2018-11-21T03:14:47.444Z,1014.09
2018-11-21T03:15:28.022Z,1014.08
2018-11-21T03:16:08.586Z,1014.12
2018-11-21T03:16:49.162Z,1014.15
2018-11-21T03:17:29.728Z,1014.19
2018-11-21T03:18:10.277Z,1014.16
2018-11-21T03:18:50.864Z,1014.09
2018-11-21T03:19:31.477Z,1014.15
2018-11-21T03:20:12.032Z,1014.13
2018-11-21T03:20:52.608Z,1014.13
2018-11-21T03:21:33.160Z,1014.16
2018-11-21T03:22:13.724Z,1014.19
2018-11-21T03:22:54.277Z,1014.15
2018-11-21T03:23:34.828Z,1014.12
2018-11-21T03:24:15.373Z,1014.18
2018-11-21T03:24:55.982Z,1014.19
2018-11-21T03:25:36.511Z,1014.16
2018-11-21T03:26:17.055Z,1014.2
2018-11-21T03:26:57.602Z,1014.2
2018-11-21T03:27:38.154Z,1014.21
2018-11-21T03:28:18.731Z,1014.22
2018-11-21T03:28:59.301Z,1014.23
2018-11-21T03:29:39.845Z,1014.26
2018-11-21T03:30:20.394Z,1014.25
2018-11-21T03:31:00.960Z,1014.27
2018-11-21T03:31:41.543Z,1014.26
2018-11-21T03:32:22.113Z,1014.31
2018-11-21T03:33:02.661Z,1014.29
2018-11-21T03:33:43.206Z,1014.24
2018-11-21T03:34:23.763Z,1014.24
2018-11-21T03:35:04.405Z,1014.23
2018-11-21T03:35:45.006Z,1014.21
2018-11-21T03:36:25.556Z,1014.22
2018-11-21T03:37:06.104Z,1014.22
2018-11-21T03:37:46.660Z,1014.25
2018-11-21T03:38:27.241Z,1014.23
2018-11-21T03:39:07.816Z,1014.27
2018-11-21T03:39:48.375Z,1014.23
2018-11-21T03:40:28.962Z,1014.26
2018-11-21T03:41:09.534Z,1014.2
2018-11-21T03:41:50.122Z,1014.2
2018-11-21T03:42:30.715Z,1014.23
2018-11-21T03:43:11.244Z,1014.21
2018-11-21T03:43:51.843Z,1014.23
2018-11-21T03:44:32.405Z,1014.22
2018-11-21T03:45:12.948Z,1014.2
2018-11-21T03:45:53.510Z,1014.23
2018-11-21T03:46:34.099Z,1014.22
2018-11-21T03:47:14.651Z,1014.26
2018-11-21T03:47:55.214Z,1014.23
2018-11-21T03:48:35.806Z,1014.24
2018-11-21T03:49:16.377Z,1014.27
2018-11-21T03:49:56.988Z,1014.31
2018-11-21T03:50:37.526Z,1014.33
2018-11-21T03:51:18.075Z,1014.34
2018-11-21T03:51:58.614Z,1014.32
2018-11-21T03:52:39.201Z,1014.3
2018-11-21T03:53:19.768Z,1014.36
2018-11-21T03:54:00.326Z,1014.35
2018-11-21T03:54:40.896Z,1014.31
2018-11-21T03:55:21.449Z,1014.34
2018-11-21T03:56:02.035Z,1014.3
2018-11-21T03:56:42.569Z,1014.27
2018-11-21T03:57:23.158Z,1014.26
2018-11-21T03:58:03.686Z,1014.28
2018-11-21T03:58:44.240Z,1014.26
2018-11-21T03:59:24.801Z,1014.28
2018-11-21T04:00:05.391Z,1014.33
2018-11-21T04:00:45.947Z,1014.24
2018-11-21T04:01:26.516Z,1014.33
2018-11-21T04:02:07.077Z,1014.32
2018-11-21T04:02:47.632Z,1014.34
2018-11-21T04:03:28.179Z,1014.31
2018-11-21T04:04:08.794Z,1014.31
2018-11-21T04:04:49.366Z,1014.32
2018-11-21T04:05:29.926Z,1014.31
2018-11-21T04:06:10.504Z,1014.33
2018-11-21T04:06:51.043Z,1014.31
2018-11-21T04:07:31.597Z,1014.33
2018-11-21T04:08:12.139Z,1014.29
2018-11-21T04:08:52.688Z,1014.27
2018-11-21T04:09:33.269Z,1014.29
2018-11-21T04:10:13.874Z,1014.29
2018-11-21T04:10:54.428Z,1014.3
2018-11-21T04:11:34.989Z,1014.33
2018-11-21T04:12:15.533Z,1014.28
2018-11-21T04:12:56.096Z,1014.35
2018-11-21T04:13:36.656Z,1014.29
2018-11-21T04:14:17.205Z,1014.29
2018-11-21T04:14:57.783Z,1014.28
2018-11-21T04:15:38.332Z,1014.3
2018-11-21T04:16:18.888Z,1014.3
2018-11-21T04:16:59.471Z,1014.31
2018-11-21T04:17:40.059Z,1014.31
2018-11-21T04:18:20.598Z,1014.33
2018-11-21T04:19:01.159Z,1014.34
2018-11-21T04:19:41.714Z,1014.38
2018-11-21T04:20:22.256Z,1014.36
2018-11-21T04:21:02.835Z,1014.32
2018-11-21T04:21:43.427Z,1014.37
2018-11-21T04:22:24.009Z,1014.31
2018-11-21T04:23:04.579Z,1014.32
2018-11-21T04:23:45.143Z,1014.29
2018-11-21T04:24:25.693Z,1014.3
2018-11-21T04:25:06.255Z,1014.36
2018-11-21T04:25:46.834Z,1014.26
2018-11-21T04:26:27.388Z,1014.31
2018-11-21T04:27:07.946Z,1014.32
2018-11-21T04:27:48.512Z,1014.38
2018-11-21T04:28:29.085Z,1014.34
2018-11-21T04:29:09.661Z,1014.39
2018-11-21T04:29:50.209Z,1014.35
2018-11-21T04:30:30.777Z,1014.41
2018-11-21T04:31:11.413Z,1014.34
2018-11-21T04:31:51.944Z,1014.35
2018-11-21T04:32:32.540Z,1014.4
2018-11-21T04:33:13.107Z,1014.35
2018-11-21T04:33:53.659Z,1014.31
2018-11-21T04:34:34.201Z,1014.34
2018-11-21T04:35:14.746Z,1014.42
2018-11-21T04:35:55.296Z,1014.4
2018-11-21T04:36:35.850Z,1014.37
2018-11-21T04:37:16.417Z,1014.42
2018-11-21T04:37:56.973Z,1014.39
2018-11-21T04:38:37.525Z,1014.4
2018-11-21T04:39:18.073Z,1014.38
2018-11-21T04:39:58.619Z,1014.37
2018-11-21T04:40:39.225Z,1014.39
2018-11-21T04:41:19.777Z,1014.36
2018-11-21T04:42:00.333Z,1014.38
2018-11-21T04:42:40.900Z,1014.35
2018-11-21T04:43:21.453Z,1014.34
2018-11-21T04:44:02.000Z,1014.41
2018-11-21T04:44:42.563Z,1014.42
2018-11-21T04:45:23.116Z,1014.47
2018-11-21T04:46:03.688Z,1014.43
2018-11-21T04:46:44.252Z,1014.44
2018-11-21T04:47:24.832Z,1014.48
2018-11-21T04:48:05.416Z,1014.44
2018-11-21T04:48:45.971Z,1014.45
2018-11-21T04:49:26.519Z,1014.49
2018-11-21T04:50:07.086Z,1014.5
2018-11-21T04:50:47.660Z,1014.51
2018-11-21T04:51:28.302Z,1014.47
2018-11-21T04:52:08.862Z,1014.44
2018-11-21T04:52:49.400Z,1014.46
2018-11-21T04:53:29.968Z,1014.51
2018-11-21T04:54:10.540Z,1014.49
2018-11-21T04:54:51.101Z,1014.46
2018-11-21T04:55:31.673Z,1014.49
2018-11-21T04:56:12.228Z,1014.48
2018-11-21T04:56:52.869Z,1014.53
2018-11-21T04:57:33.646Z,1014.49
2018-11-21T04:58:14.306Z,1014.45
2018-11-21T04:58:55.059Z,1014.45
2018-11-21T04:59:35.732Z,1014.5
2018-11-21T05:00:16.478Z,1014.54
2018-11-21T05:00:57.021Z,1014.49
2018-11-21T05:01:37.600Z,1014.52
2018-11-21T05:02:18.134Z,1014.55
2018-11-21T05:02:58.684Z,1014.5
2018-11-21T05:03:39.247Z,1014.55
2018-11-21T05:04:19.803Z,1014.49
2018-11-21T05:05:00.345Z,1014.48
2018-11-21T05:05:40.930Z,1014.49
2018-11-21T05:06:21.458Z,1014.49
2018-11-21T05:07:02.024Z,1014.47
2018-11-21T05:07:42.589Z,1014.49
2018-11-21T05:08:23.139Z,1014.52
2018-11-21T05:09:03.723Z,1014.5
2018-11-21T05:09:44.287Z,1014.51
2018-11-21T05:10:24.854Z,1014.56
2018-11-21T05:11:06.363Z,1014.53
2018-11-21T05:11:45.944Z,1014.49
2018-11-21T05:12:26.507Z,1014.52
2018-11-21T05:13:07.095Z,1014.49
2018-11-21T05:13:47.649Z,1014.57
2018-11-21T05:14:28.207Z,1014.57
2018-11-21T05:15:08.771Z,1014.56
2018-11-21T05:15:49.338Z,1014.62
2018-11-21T05:16:29.904Z,1014.58
2018-11-21T05:17:10.502Z,1014.6
2018-11-21T05:17:51.041Z,1014.6
2018-11-21T05:18:31.576Z,1014.58
2018-11-21T05:19:12.138Z,1014.56
2018-11-21T05:19:52.694Z,1014.61
2018-11-21T05:20:33.257Z,1014.58
2018-11-21T05:21:13.824Z,1014.58
2018-11-21T05:21:54.380Z,1014.56
2018-11-21T05:22:34.957Z,1014.54
2018-11-21T05:23:15.541Z,1014.55
2018-11-21T05:23:56.095Z,1014.58
2018-11-21T05:24:36.660Z,1014.57
2018-11-21T05:25:17.212Z,1014.56
2018-11-21T05:25:57.763Z,1014.59
2018-11-21T05:26:38.325Z,1014.59
2018-11-21T05:27:18.890Z,1014.54
2018-11-21T05:27:59.465Z,1014.56
2018-11-21T05:28:40.024Z,1014.59
2018-11-21T05:29:20.608Z,1014.58
2018-11-21T05:30:01.151Z,1014.62
2018-11-21T05:30:41.706Z,1014.62
2018-11-21T05:31:22.270Z,1014.61
2018-11-21T05:32:02.820Z,1014.65
2018-11-21T05:32:43.380Z,1014.64
2018-11-21T05:33:23.915Z,1014.67
2018-11-21T05:34:04.463Z,1014.63
2018-11-21T05:34:45.015Z,1014.69
2018-11-21T05:35:25.694Z,1014.67
2018-11-21T05:36:06.195Z,1014.63
2018-11-21T05:36:46.731Z,1014.7
2018-11-21T05:37:27.336Z,1014.7
2018-11-21T05:38:07.888Z,1014.67
2018-11-21T05:38:48.450Z,1014.71
2018-11-21T05:39:28.998Z,1014.67
2018-11-21T05:40:09.565Z,1014.71
2018-11-21T05:40:50.140Z,1014.64
2018-11-21T05:41:30.688Z,1014.65
2018-11-21T05:42:11.253Z,1014.71
2018-11-21T05:42:51.804Z,1014.69
2018-11-21T05:43:32.362Z,1014.64
2018-11-21T05:44:12.925Z,1014.73
2018-11-21T05:44:53.476Z,1014.71
2018-11-21T05:45:34.055Z,1014.74
2018-11-21T05:46:14.604Z,1014.7
2018-11-21T05:46:55.170Z,1014.72
2018-11-21T05:47:35.715Z,1014.74
2018-11-21T05:48:16.299Z,1014.74
2018-11-21T05:48:56.875Z,1014.77
2018-11-21T05:49:37.467Z,1014.8
2018-11-21T05:50:18.012Z,1014.77
2018-11-21T05:50:58.821Z,1014.77
2018-11-21T05:51:40.010Z,1014.76
2018-11-21T05:52:21.024Z,1014.76
2018-11-21T05:53:01.944Z,1014.8
2018-11-21T05:53:43.033Z,1014.83
2018-11-21T05:54:23.604Z,1014.78
2018-11-21T05:55:04.184Z,1014.82
2018-11-21T05:55:44.744Z,1014.82
2018-11-21T05:56:25.312Z,1014.83
2018-11-21T05:57:05.864Z,1014.89
2018-11-21T05:57:46.432Z,1014.85
2018-11-21T05:58:27.052Z,1014.87
2018-11-21T05:59:07.596Z,1014.88
2018-11-21T05:59:48.157Z,1014.87
2018-11-21T06:00:29.127Z,1014.92
2018-11-21T06:01:09.998Z,1014.9
2018-11-21T06:01:50.555Z,1014.87
2018-11-21T06:02:31.118Z,1014.87
2018-11-21T06:03:11.696Z,1014.91
2018-11-21T06:03:52.316Z,1014.93
2018-11-21T06:04:32.847Z,1014.95
2018-11-21T06:05:13.552Z,1014.89
2018-11-21T06:05:54.456Z,1014.88
2018-11-21T06:06:35.013Z,1014.93
2018-11-21T06:07:15.571Z,1014.97
2018-11-21T06:07:56.172Z,1014.99
2018-11-21T06:08:36.724Z,1014.96
2018-11-21T06:09:17.374Z,1014.95
2018-11-21T06:09:57.932Z,1015
2018-11-21T06:10:38.502Z,1015
2018-11-21T06:11:19.053Z,1014.97
2018-11-21T06:12:04.218Z,1015
2018-11-21T06:12:40.173Z,1015.03
2018-11-21T06:13:20.729Z,1015.06
2018-11-21T06:14:01.312Z,1015.05
2018-11-21T06:14:41.900Z,1015.07
2018-11-21T06:15:22.460Z,1015.05
2018-11-21T06:16:03.009Z,1015.12
2018-11-21T06:16:43.563Z,1015.1
2018-11-21T06:17:24.118Z,1015.14
2018-11-21T06:18:04.719Z,1015.2
2018-11-21T06:18:45.275Z,1015.18
2018-11-21T06:19:25.831Z,1015.18
2018-11-21T06:20:06.370Z,1015.22
2018-11-21T06:20:46.924Z,1015.24
2018-11-21T06:21:27.471Z,1015.29
2018-11-21T06:22:08.035Z,1015.25
2018-11-21T06:22:48.622Z,1015.26
2018-11-21T06:23:29.188Z,1015.29
2018-11-21T06:24:09.765Z,1015.28
2018-11-21T06:24:50.345Z,1015.28
2018-11-21T06:25:30.948Z,1015.31
2018-11-21T06:26:11.498Z,1015.35
2018-11-21T06:26:52.033Z,1015.35
2018-11-21T06:27:32.599Z,1015.32
2018-11-21T06:28:13.152Z,1015.28
2018-11-21T06:28:53.703Z,1015.31
2018-11-21T06:29:34.287Z,1015.3
2018-11-21T06:30:14.861Z,1015.31
2018-11-21T06:30:55.406Z,1015.27
2018-11-21T06:31:35.952Z,1015.28
2018-11-21T06:32:16.515Z,1015.27
2018-11-21T06:32:57.054Z,1015.27
2018-11-21T06:33:37.630Z,1015.27
2018-11-21T06:34:18.197Z,1015.32
2018-11-21T06:34:58.742Z,1015.31
2018-11-21T06:35:39.329Z,1015.33
2018-11-21T06:36:19.887Z,1015.33
2018-11-21T06:37:00.480Z,1015.32
2018-11-21T06:37:41.039Z,1015.36
2018-11-21T06:38:21.595Z,1015.34
2018-11-21T06:39:02.158Z,1015.35
2018-11-21T06:39:42.827Z,1015.36
2018-11-21T06:40:23.358Z,1015.28
2018-11-21T06:41:03.904Z,1015.36
2018-11-21T06:41:44.458Z,1015.35
2018-11-21T06:42:25.048Z,1015.39
2018-11-21T06:43:05.610Z,1015.36
2018-11-21T06:43:46.159Z,1015.42
2018-11-21T06:44:26.701Z,1015.36
2018-11-21T06:45:07.297Z,1015.41
2018-11-21T06:45:47.859Z,1015.4
2018-11-21T06:46:28.459Z,1015.44
2018-11-21T06:47:09.020Z,1015.43
2018-11-21T06:47:49.575Z,1015.43
2018-11-21T06:48:30.150Z,1015.44
2018-11-21T06:49:10.729Z,1015.47
2018-11-21T06:49:51.348Z,1015.52
2018-11-21T06:50:31.957Z,1015.51
2018-11-21T06:51:12.555Z,1015.58
2018-11-21T06:51:53.124Z,1015.6
2018-11-21T06:52:33.697Z,1015.57
2018-11-21T06:53:14.258Z,1015.51
2018-11-21T06:53:54.816Z,1015.52
2018-11-21T06:54:35.382Z,1015.55
2018-11-21T06:55:15.934Z,1015.6
2018-11-21T06:55:56.481Z,1015.56
2018-11-21T06:56:37.041Z,1015.59
2018-11-21T06:57:17.651Z,1015.57
2018-11-21T06:57:58.204Z,1015.62
2018-11-21T06:58:38.759Z,1015.57
2018-11-21T06:59:19.319Z,1015.57
2018-11-21T06:59:59.859Z,1015.62
2018-11-21T07:00:40.425Z,1015.64
2018-11-21T07:01:21.034Z,1015.68
2018-11-21T07:02:03.137Z,1015.68
2018-11-21T07:02:43.718Z,1015.64
2018-11-21T07:03:24.269Z,1015.69
2018-11-21T07:04:04.890Z,1015.72
2018-11-21T07:04:45.451Z,1015.74
2018-11-21T07:05:26.018Z,1015.74
2018-11-21T07:06:06.590Z,1015.78
2018-11-21T07:06:47.175Z,1015.8
2018-11-21T07:07:27.754Z,1015.77
2018-11-21T07:08:08.350Z,1015.78
2018-11-21T07:08:48.907Z,1015.82
2018-11-21T07:09:29.449Z,1015.81
2018-11-21T07:10:10.041Z,1015.88
2018-11-21T07:10:50.634Z,1015.89
2018-11-21T07:11:31.204Z,1015.85
2018-11-21T07:12:11.763Z,1015.91
2018-11-21T07:12:52.342Z,1015.93
2018-11-21T07:13:32.921Z,1015.92
2018-11-21T07:14:13.494Z,1015.92
2018-11-21T07:14:54.044Z,1015.91
2018-11-21T07:15:34.668Z,1015.97
2018-11-21T07:16:15.216Z,1016.01
2018-11-21T07:16:55.796Z,1015.98
2018-11-21T07:17:36.364Z,1015.97
2018-11-21T07:18:16.949Z,1015.97
2018-11-21T07:18:57.530Z,1016.02
2018-11-21T07:19:38.161Z,1016.01
2018-11-21T07:20:18.806Z,1015.99
2018-11-21T07:20:59.480Z,1015.99
2018-11-21T07:21:40.036Z,1016.01
2018-11-21T07:22:20.581Z,1016.02
2018-11-21T07:23:01.323Z,1015.95
2018-11-21T07:23:41.939Z,1016
2018-11-21T07:24:26.245Z,1015.93
2018-11-21T07:25:03.096Z,1015.96
2018-11-21T07:25:43.760Z,1015.91
2018-11-21T07:26:24.359Z,1015.92
2018-11-21T07:27:04.974Z,1015.97
2018-11-21T07:27:45.956Z,1016
2018-11-21T07:28:27.326Z,1015.91
2018-11-21T07:29:08.477Z,1015.95
2018-11-21T07:29:49.552Z,1015.97
2018-11-21T07:30:30.135Z,1015.96
2018-11-21T07:31:10.716Z,1015.97
2018-11-21T07:31:51.245Z,1015.96
2018-11-21T07:32:31.819Z,1015.97
2018-11-21T07:33:12.396Z,1015.95
2018-11-21T07:33:53.034Z,1015.99
2018-11-21T07:34:33.650Z,1015.97
2018-11-21T07:35:17.690Z,1016
2018-11-21T07:35:54.818Z,1015.97
2018-11-21T07:36:35.400Z,1016.01
2018-11-21T07:37:15.975Z,1015.99
2018-11-21T07:37:56.630Z,1016.07
2018-11-21T07:38:37.182Z,1016.01
2018-11-21T07:39:17.756Z,1015.98
2018-11-21T07:39:58.295Z,1016.02
2018-11-21T07:40:38.862Z,1016.03
2018-11-21T07:41:19.461Z,1016.05
2018-11-21T07:42:00.024Z,1016.03
2018-11-21T07:42:40.594Z,1016.09
2018-11-21T07:43:21.175Z,1016.13
2018-11-21T07:44:01.805Z,1016.09
2018-11-21T07:44:42.382Z,1016.05
2018-11-21T07:45:23.723Z,1016.06
2018-11-21T07:46:03.643Z,1016.06
2018-11-21T07:46:44.260Z,1016.02
2018-11-21T07:47:26.601Z,1016.08
2018-11-21T07:48:05.401Z,1016.04
2018-11-21T07:48:45.957Z,1016.07
2018-11-21T07:49:26.563Z,1016.07
2018-11-21T07:50:07.300Z,1016.06
2018-11-21T07:50:47.887Z,1016.05
2018-11-21T07:51:28.553Z,1016.08
2018-11-21T07:52:09.168Z,1016.08
2018-11-21T07:52:49.762Z,1016.11
2018-11-21T07:53:30.306Z,1016.07
2018-11-21T07:54:10.907Z,1016.11
2018-11-21T07:54:51.490Z,1016.13
2018-11-21T07:55:32.962Z,1016.12
2018-11-21T07:56:13.949Z,1016.1
2018-11-21T07:56:54.554Z,1016.14
2018-11-21T07:57:35.255Z,1016.14
2018-11-21T07:58:15.829Z,1016.06
2018-11-21T07:58:56.454Z,1016.11
2018-11-21T07:59:37.045Z,1016.15
2018-11-21T08:00:17.630Z,1016.2
2018-11-21T08:00:58.844Z,1016.18
2018-11-21T08:01:40.240Z,1016.2
2018-11-21T08:02:21.086Z,1016.18
2018-11-21T08:03:01.722Z,1016.18
2018-11-21T08:03:42.265Z,1016.19
2018-11-21T08:04:22.897Z,1016.12
2018-11-21T08:05:03.461Z,1016.17
2018-11-21T08:05:44.354Z,1016.17
2018-11-21T08:06:24.606Z,1016.17
2018-11-21T08:07:05.185Z,1016.2
2018-11-21T08:07:45.742Z,1016.19
2018-11-21T08:08:26.318Z,1016.23
2018-11-21T08:09:07.480Z,1016.27
2018-11-21T08:09:48.033Z,1016.28
2018-11-21T08:10:28.581Z,1016.21
2018-11-21T08:11:09.144Z,1016.24
2018-11-21T08:11:49.741Z,1016.22
2018-11-21T08:12:30.275Z,1016.22